createdAt,value
2019-02-02T00:04:38.136Z,15.00
2019-02-02T00:09:55.122Z,15.93
2019-02-02T00:15:12.830Z,14.67
2019-02-02T00:20:30.324Z,13.67
2019-02-02T00:25:47.650Z,15.70
2019-02-02T00:31:04.541Z,15.27
2019-02-02T00:36:22.330Z,14.33
2019-02-02T00:41:39.244Z,14.90
2019-02-02T00:46:56.347Z,14.87
2019-02-02T00:52:13.268Z,14.97
2019-02-02T00:57:30.461Z,15.30
2019-02-02T01:02:47.451Z,15.60
2019-02-02T01:08:04.532Z,15.40
2019-02-02T01:13:21.692Z,16.30
2019-02-02T01:18:38.755Z,22.57
2019-02-02T01:23:55.805Z,16.03
2019-02-02T01:29:13.631Z,16.80
2019-02-02T01:34:30.994Z,15.30
2019-02-02T01:39:48.060Z,16.50
2019-02-02T01:45:05.146Z,15.27
2019-02-02T01:50:22.436Z,14.60
2019-02-02T01:55:39.940Z,14.20
2019-02-02T02:00:56.808Z,14.30
2019-02-02T02:06:13.892Z,13.37
2019-02-02T02:11:30.948Z,16.77
2019-02-02T02:16:47.717Z,15.67
2019-02-02T02:22:05.089Z,16.97
2019-02-02T02:27:22.100Z,17.10
2019-02-02T02:32:39.604Z,13.63
2019-02-02T02:37:56.302Z,14.07
2019-02-02T02:43:13.698Z,16.67
2019-02-02T02:48:30.429Z,15.33
2019-02-02T02:53:48.087Z,15.20
2019-02-02T02:59:05.368Z,17.13
2019-02-02T03:04:22.217Z,14.90
2019-02-02T03:09:39.792Z,15.47
2019-02-02T03:14:57.263Z,17.63
2019-02-02T03:20:14.386Z,14.77
2019-02-02T03:25:31.242Z,16.47
2019-02-02T03:30:48.586Z,15.30
2019-02-02T03:36:05.447Z,17.23
2019-02-02T03:41:22.845Z,18.10
2019-02-02T03:46:39.602Z,18.37
2019-02-02T03:51:57.098Z,16.90
2019-02-02T03:57:14.124Z,16.13
2019-02-02T04:02:31.255Z,18.83
2019-02-02T04:07:48.077Z,17.53
2019-02-02T04:13:05.489Z,17.37
2019-02-02T04:18:22.426Z,17.10
2019-02-02T04:23:39.654Z,17.73
2019-02-02T04:28:56.737Z,18.83
2019-02-02T04:34:13.633Z,16.93
2019-02-02T04:39:30.475Z,18.40
2019-02-02T04:44:47.642Z,18.00
2019-02-02T04:50:04.900Z,15.77
2019-02-02T04:55:21.589Z,15.43
2019-02-02T05:00:38.284Z,17.30
2019-02-02T05:05:55.486Z,16.50
2019-02-02T05:11:12.391Z,15.73
2019-02-02T05:16:30.388Z,14.73
2019-02-02T05:21:47.973Z,14.37
2019-02-02T05:27:05.261Z,13.40
2019-02-02T05:32:22.101Z,13.13
2019-02-02T05:37:39.518Z,14.23
2019-02-02T05:42:56.691Z,15.73
2019-02-02T05:48:13.585Z,13.73
2019-02-02T05:53:31.099Z,13.47
2019-02-02T05:58:48.465Z,14.60
2019-02-02T06:04:05.861Z,14.00
2019-02-02T06:09:23.003Z,15.30
2019-02-02T06:14:40.367Z,19.07
2019-02-02T06:19:57.635Z,16.17
2019-02-02T06:25:15.437Z,16.20
2019-02-02T06:30:32.822Z,17.40
2019-02-02T06:35:50.227Z,18.40
2019-02-02T06:41:07.264Z,17.27
2019-02-02T06:46:24.607Z,18.00
2019-02-02T06:51:42.097Z,19.60
2019-02-02T06:56:59.091Z,19.53
2019-02-02T07:02:16.123Z,20.73
2019-02-02T07:07:33.850Z,19.80
2019-02-02T07:12:51.589Z,19.10
2019-02-02T07:18:09.218Z,21.97
2019-02-02T07:23:26.493Z,19.10
2019-02-02T07:28:43.442Z,19.87
2019-02-02T07:34:00.853Z,22.13
2019-02-02T07:39:17.957Z,27.95
2019-02-02T07:44:35.044Z,26.30
2019-02-02T07:49:51.614Z,26.47
2019-02-02T07:55:09.042Z,28.25
2019-02-02T08:00:26.306Z,28.10
2019-02-02T08:05:43.391Z,28.02
2019-02-02T08:11:00.770Z,18.57
2019-02-02T08:16:18.358Z,18.23
2019-02-02T08:21:35.522Z,20.17
2019-02-02T08:26:52.742Z,23.13
2019-02-02T08:32:09.780Z,23.13
2019-02-02T08:37:27.430Z,21.17
2019-02-02T08:42:44.702Z,21.20
2019-02-02T08:48:02.164Z,18.20
2019-02-02T08:53:19.814Z,17.53
2019-02-02T08:58:36.744Z,17.27
2019-02-02T09:03:53.789Z,16.97
2019-02-02T09:09:10.771Z,17.07
2019-02-02T09:14:27.951Z,17.97
2019-02-02T09:19:45.600Z,20.03
2019-02-02T09:25:02.458Z,21.10
2019-02-02T09:30:19.523Z,18.13
2019-02-02T09:35:36.800Z,16.60
2019-02-02T09:40:53.660Z,18.17
2019-02-02T09:46:10.570Z,15.37
2019-02-02T09:51:28.167Z,18.73
2019-02-02T09:56:45.204Z,16.60
2019-02-02T10:02:02.354Z,17.50
2019-02-02T10:07:19.214Z,17.57
2019-02-02T10:12:36.442Z,16.70
2019-02-02T10:17:53.702Z,16.80
2019-02-02T10:23:10.711Z,14.90
2019-02-02T10:28:28.130Z,15.93
2019-02-02T10:33:45.086Z,15.83
2019-02-02T10:39:01.937Z,15.03
2019-02-02T10:44:18.975Z,13.70
2019-02-02T10:49:36.545Z,13.97
2019-02-02T10:54:53.959Z,14.30
2019-02-02T11:00:11.026Z,13.87
2019-02-02T11:05:27.991Z,13.90
2019-02-02T11:10:45.714Z,13.43
2019-02-02T11:16:03.433Z,13.33
2019-02-02T11:21:21.120Z,14.20
2019-02-02T11:26:38.790Z,12.37
2019-02-02T11:32:02.865Z,11.43
2019-02-02T11:37:15.554Z,11.27
2019-02-02T11:42:33.024Z,11.93
2019-02-02T11:47:49.938Z,10.47
2019-02-02T11:53:07.258Z,10.90
2019-02-02T11:58:24.886Z,9.20
2019-02-02T12:03:41.914Z,9.73
2019-02-02T12:08:58.903Z,8.60
2019-02-02T12:14:16.140Z,8.37
2019-02-02T12:19:33.514Z,7.97
2019-02-02T12:24:50.419Z,9.03
2019-02-02T12:30:07.472Z,8.17
2019-02-02T12:35:24.769Z,8.03
2019-02-02T12:40:42.018Z,7.57
2019-02-02T12:45:59.085Z,7.70
2019-02-02T12:51:16.630Z,6.83
2019-02-02T12:56:34.162Z,7.50
2019-02-02T13:01:51.248Z,8.30
2019-02-02T13:07:08.557Z,8.13
2019-02-02T13:12:26.038Z,7.53
2019-02-02T13:17:43.311Z,8.57
2019-02-02T13:23:00.294Z,8.07
2019-02-02T13:28:17.670Z,8.77
2019-02-02T13:33:34.472Z,7.23
2019-02-02T13:38:51.431Z,6.53
2019-02-02T13:44:08.798Z,7.37
2019-02-02T13:49:26.010Z,7.60
2019-02-02T13:54:43.257Z,7.23
2019-02-02T14:00:00.000Z,7.90
2019-02-02T14:05:16.916Z,6.57
2019-02-02T14:10:34.332Z,7.80
2019-02-02T14:15:51.654Z,7.93
2019-02-02T14:21:09.099Z,7.57
2019-02-02T14:26:26.390Z,7.37
2019-02-02T14:31:43.675Z,7.23
2019-02-02T14:37:00.753Z,6.97
2019-02-02T14:42:18.465Z,7.70
2019-02-02T14:47:35.565Z,6.47
2019-02-02T14:52:52.586Z,7.40
2019-02-02T14:58:09.702Z,8.37
2019-02-02T15:03:26.760Z,6.67
2019-02-02T15:08:44.995Z,6.53
2019-02-02T15:14:02.642Z,6.23
2019-02-02T15:19:19.771Z,6.93
2019-02-02T15:24:37.160Z,5.57
2019-02-02T15:29:54.879Z,6.20
2019-02-02T15:35:14.174Z,5.30
2019-02-02T15:40:31.662Z,5.60
2019-02-02T15:45:48.611Z,5.40
2019-02-02T15:51:06.251Z,6.10
2019-02-02T15:56:23.119Z,5.47
2019-02-02T16:01:39.868Z,5.50
2019-02-02T16:06:57.535Z,4.70
2019-02-02T16:12:14.385Z,5.03
2019-02-02T16:17:31.567Z,5.33
2019-02-02T16:22:49.211Z,6.00
2019-02-02T16:28:06.890Z,5.53
2019-02-02T16:33:24.004Z,4.73
2019-02-02T16:38:41.667Z,4.70
2019-02-02T16:43:59.285Z,6.17
2019-02-02T16:49:16.707Z,4.47
2019-02-02T16:54:34.069Z,4.50
2019-02-02T16:59:51.361Z,3.80
2019-02-02T17:05:09.057Z,3.93
2019-02-02T17:10:26.639Z,5.53
2019-02-02T17:15:43.349Z,5.37
2019-02-02T17:21:00.412Z,4.50
2019-02-02T17:26:17.770Z,4.57
2019-02-02T17:31:35.268Z,4.60
2019-02-02T17:36:52.713Z,4.87
2019-02-02T17:42:10.003Z,4.87
2019-02-02T17:47:26.816Z,4.47
2019-02-02T17:52:44.401Z,5.30
2019-02-02T17:58:02.781Z,4.70
2019-02-02T18:03:19.890Z,5.50
2019-02-02T18:08:36.848Z,5.13
2019-02-02T18:13:53.853Z,6.75
2019-02-02T18:19:11.072Z,6.40
2019-02-02T18:24:29.614Z,5.90
2019-02-02T18:29:46.862Z,6.73
2019-02-02T18:35:04.076Z,7.05
2019-02-02T18:40:21.300Z,5.62
2019-02-02T18:45:38.519Z,5.83
2019-02-02T18:50:55.917Z,6.53
2019-02-02T18:56:13.183Z,6.10
2019-02-02T19:01:30.104Z,5.20
2019-02-02T19:06:47.250Z,4.47
2019-02-02T19:12:04.300Z,5.50
2019-02-02T19:17:21.558Z,6.87
2019-02-02T19:22:38.718Z,8.43
2019-02-02T19:27:55.890Z,10.57
2019-02-02T19:33:13.343Z,10.77
2019-02-02T19:38:30.415Z,11.07
2019-02-02T19:43:48.070Z,10.67
2019-02-02T19:49:05.666Z,10.90
2019-02-02T19:54:22.686Z,13.40
2019-02-02T19:59:40.097Z,15.38
2019-02-02T20:04:57.708Z,12.47
2019-02-02T20:10:14.594Z,16.48
2019-02-02T20:15:31.794Z,16.45
2019-02-02T20:20:48.866Z,14.77
2019-02-02T20:26:06.156Z,13.57
2019-02-02T20:31:23.114Z,12.60
2019-02-02T20:36:40.257Z,12.03
2019-02-02T20:41:59.843Z,11.03
2019-02-02T20:47:16.308Z,11.00
2019-02-02T20:52:33.364Z,11.33
2019-02-02T20:57:50.648Z,10.17
2019-02-02T21:03:08.306Z,12.18
2019-02-02T21:08:25.590Z,12.18
2019-02-02T21:13:43.129Z,10.23
2019-02-02T21:19:00.013Z,9.43
2019-02-02T21:24:17.291Z,8.93
2019-02-02T21:29:34.842Z,12.77
2019-02-02T21:34:51.817Z,9.13
2019-02-02T21:40:08.675Z,9.50
2019-02-02T21:45:25.982Z,8.27
2019-02-02T21:50:43.738Z,8.30
2019-02-02T21:56:01.015Z,9.23
2019-02-02T22:01:24.148Z,8.93
2019-02-02T22:06:36.679Z,8.67
2019-02-02T22:11:53.977Z,9.40
2019-02-02T22:17:11.157Z,10.23
2019-02-02T22:22:28.777Z,11.57
2019-02-02T22:27:45.763Z,11.80
2019-02-02T22:33:02.735Z,8.63
2019-02-02T22:38:19.702Z,8.90
2019-02-02T22:43:36.928Z,8.20
2019-02-02T22:48:54.310Z,8.80
2019-02-02T22:54:11.383Z,8.80
2019-02-02T22:59:28.467Z,8.77
2019-02-02T23:04:45.635Z,8.67
2019-02-02T23:10:02.642Z,8.10
2019-02-02T23:15:19.954Z,9.37
2019-02-02T23:20:37.004Z,10.18
2019-02-02T23:25:54.511Z,9.68
2019-02-02T23:31:11.554Z,7.77
2019-02-02T23:36:29.454Z,8.43
2019-02-02T23:41:46.620Z,7.90
2019-02-02T23:47:03.937Z,10.32
2019-02-02T23:52:21.167Z,9.07
2019-02-02T23:57:38.774Z,7.80
